createdAt,value
2023-03-01T00:01:47.201Z,0.02
2023-03-01T00:04:14.952Z,-0.05
2023-03-01T00:06:46.972Z,-0.02
2023-03-01T00:09:16.960Z,-0.09
2023-03-01T00:11:44.826Z,0.03
2023-03-01T00:14:12.563Z,-0.07
2023-03-01T00:16:42.530Z,0.21
2023-03-01T00:19:13.419Z,0.08
2023-03-01T00:21:41.601Z,-0.03
2023-03-01T00:24:10.215Z,0.04
2023-03-01T00:26:39.689Z,0.15
2023-03-01T00:29:07.705Z,0.23
2023-03-01T00:31:35.920Z,0.20
2023-03-01T00:34:05.821Z,0.10
2023-03-01T00:36:35.465Z,-0.01
2023-03-01T00:39:05.213Z,0.01
2023-03-01T00:41:34.790Z,0.22
2023-03-01T00:44:03.838Z,0.11
2023-03-01T00:46:32.220Z,0.06
2023-03-01T00:49:02.891Z,0.16
2023-03-01T00:51:31.659Z,0.20
2023-03-01T00:54:01.748Z,0.06
2023-03-01T00:56:29.883Z,0.02
2023-03-01T00:58:57.799Z,-0.01
2023-03-01T01:01:31.671Z,0.27
2023-03-01T01:04:01.965Z,0.23
2023-03-01T01:06:32.373Z,0.07
2023-03-01T01:09:00.740Z,0.12
2023-03-01T01:11:29.586Z,0.16
2023-03-01T01:13:58.218Z,0.16
2023-03-01T01:16:29.654Z,-0.02
2023-03-01T01:18:58.221Z,0.09
2023-03-01T01:21:26.530Z,0.37
2023-03-01T01:23:54.823Z,0.36
2023-03-01T01:26:24.786Z,0.11
2023-03-01T01:28:53.188Z,0.22
2023-03-01T01:31:21.589Z,0.29
2023-03-01T01:33:50.541Z,0.23
2023-03-01T01:36:18.233Z,0.22
2023-03-01T01:38:45.941Z,0.12
2023-03-01T01:41:14.929Z,-0.02
2023-03-01T01:43:44.530Z,0.09
2023-03-01T01:46:22.170Z,0.09
2023-03-01T01:48:56.913Z,-0.05
2023-03-01T01:51:29.202Z,0.06
2023-03-01T01:54:02.551Z,0.15
2023-03-01T01:56:32.825Z,0.28
2023-03-01T01:59:03.342Z,0.28
2023-03-01T02:01:31.092Z,0.16
2023-03-01T02:04:00.795Z,0.27
2023-03-01T02:06:32.034Z,0.40
2023-03-01T02:09:04.252Z,0.35
2023-03-01T02:11:33.123Z,0.33
2023-03-01T02:14:00.747Z,0.33
2023-03-01T02:16:30.304Z,0.32
2023-03-01T02:19:00.396Z,0.49
2023-03-01T02:21:40.227Z,0.37
2023-03-01T02:24:20.947Z,0.39
2023-03-01T02:26:53.769Z,0.26
2023-03-01T02:29:23.046Z,0.21
2023-03-01T02:31:53.200Z,0.15
2023-03-01T02:34:26.209Z,0.19
2023-03-01T02:36:58.094Z,0.18
2023-03-01T02:39:30.492Z,0.31
2023-03-01T02:41:59.894Z,0.28
2023-03-01T02:44:28.937Z,0.24
2023-03-01T02:46:58.989Z,0.18
2023-03-01T02:49:29.049Z,0.07
2023-03-01T02:52:24.239Z,0.02
2023-03-01T02:54:58.010Z,-0.14
2023-03-01T02:57:28.307Z,-0.22
2023-03-01T03:00:01.491Z,-0.15
2023-03-01T03:02:38.479Z,-0.10
2023-03-01T03:05:10.445Z,-0.07
2023-03-01T03:07:43.814Z,-0.14
2023-03-01T03:10:14.414Z,-0.04
2023-03-01T03:12:42.837Z,-0.07
2023-03-01T03:15:13.661Z,-0.01
2023-03-01T03:17:45.342Z,0.02
2023-03-01T03:20:19.896Z,-0.10
2023-03-01T03:22:48.035Z,-0.12
2023-03-01T03:25:18.717Z,-0.15
2023-03-01T03:27:48.514Z,-0.29
2023-03-01T03:30:21.858Z,-0.30
2023-03-01T03:32:53.165Z,-0.38
2023-03-01T03:35:22.111Z,-0.39
2023-03-01T03:38:09.900Z,-0.40
2023-03-01T03:40:39.181Z,-0.42
2023-03-01T03:43:10.064Z,-0.34
2023-03-01T03:45:39.101Z,-0.38
2023-03-01T03:48:08.793Z,-0.34
2023-03-01T03:50:36.468Z,-0.41
2023-03-01T03:53:07.083Z,-0.33
2023-03-01T03:55:34.834Z,-0.47
2023-03-01T03:58:07.843Z,-0.48
2023-03-01T04:00:37.148Z,-0.46
2023-03-01T04:03:06.564Z,-0.48
2023-03-01T04:05:35.467Z,-0.38
2023-03-01T04:08:07.949Z,-0.44
2023-03-01T04:10:39.896Z,-0.37
2023-03-01T04:13:11.549Z,-0.41
2023-03-01T04:15:40.224Z,-0.39
2023-03-01T04:18:09.311Z,-0.32
2023-03-01T04:20:42.023Z,-0.47
2023-03-01T04:23:16.952Z,-0.31
2023-03-01T04:25:50.273Z,-0.31
2023-03-01T04:31:14.586Z,-0.36
2023-03-01T04:33:45.622Z,-0.42
2023-03-01T04:36:15.765Z,-0.51
2023-03-01T04:38:48.433Z,-0.61
2023-03-01T04:41:18.271Z,-0.46
2023-03-01T04:43:46.091Z,-0.41
2023-03-01T04:46:16.077Z,-0.56
2023-03-01T04:48:47.830Z,-0.51
2023-03-01T04:51:19.329Z,-0.41
2023-03-01T04:53:46.986Z,-0.51
2023-03-01T04:56:15.541Z,-0.42
2023-03-01T04:58:43.826Z,-0.46
2023-03-01T05:01:16.234Z,-0.51
2023-03-01T05:03:46.862Z,-0.59
2023-03-01T05:06:14.972Z,-0.47
2023-03-01T05:08:43.880Z,-0.76
2023-03-01T05:11:12.546Z,-0.73
2023-03-01T05:13:41.360Z,-0.69
2023-03-01T05:16:12.294Z,-0.61
2023-03-01T05:18:43.635Z,-0.62
2023-03-01T05:21:16.909Z,-0.81
2023-03-01T05:23:44.877Z,-0.81
2023-03-01T05:26:27.408Z,-0.70
2023-03-01T05:29:00.283Z,-0.69
2023-03-01T05:31:28.616Z,-0.73
2023-03-01T05:33:56.198Z,-0.75
2023-03-01T05:36:25.128Z,-0.73
2023-03-01T05:38:52.690Z,-0.65
2023-03-01T05:41:20.275Z,-0.64
2023-03-01T05:43:47.865Z,-0.54
2023-03-01T05:46:16.298Z,-0.61
2023-03-01T05:48:44.584Z,-0.61
2023-03-01T05:51:13.005Z,-0.60
2023-03-01T05:53:42.563Z,-0.59
2023-03-01T05:56:10.194Z,-0.74
2023-03-01T05:58:39.577Z,-0.84
2023-03-01T06:01:07.486Z,-0.79
2023-03-01T06:03:35.201Z,-0.71
2023-03-01T06:06:03.125Z,-0.75
2023-03-01T06:08:30.915Z,-0.84
2023-03-01T06:11:00.237Z,-0.83
2023-03-01T06:13:27.938Z,-0.77
2023-03-01T06:15:55.761Z,-0.71
2023-03-01T06:18:23.479Z,-0.59
2023-03-01T06:20:55.082Z,-0.55
2023-03-01T06:23:23.118Z,-0.52
2023-03-01T06:25:51.057Z,-0.15
2023-03-01T06:28:20.022Z,0.02
2023-03-01T06:30:47.725Z,0.04
2023-03-01T06:33:16.249Z,0.27
2023-03-01T06:35:44.003Z,0.64
2023-03-01T06:38:11.590Z,0.80
2023-03-01T06:40:39.210Z,1.02
2023-03-01T06:43:08.203Z,0.95
2023-03-01T06:45:37.175Z,0.62
2023-03-01T06:48:07.691Z,0.44
2023-03-01T06:50:36.382Z,0.38
2023-03-01T06:53:04.635Z,0.48
2023-03-01T06:55:48.750Z,0.46
2023-03-01T06:58:16.649Z,0.50
2023-03-01T07:00:45.740Z,0.47
2023-03-01T07:03:20.116Z,0.53
2023-03-01T07:05:51.246Z,0.39
2023-03-01T07:08:23.393Z,0.38
2023-03-01T07:10:57.748Z,0.19
2023-03-01T07:13:25.921Z,0.22
2023-03-01T07:15:55.165Z,0.28
2023-03-01T07:18:23.176Z,0.18
2023-03-01T07:20:51.582Z,0.25
2023-03-01T07:23:19.176Z,0.16
2023-03-01T07:25:52.678Z,0.08
2023-03-01T07:28:20.360Z,0.28
2023-03-01T07:30:48.113Z,0.30
2023-03-01T07:33:17.136Z,0.51
2023-03-01T07:35:44.827Z,0.76
2023-03-01T07:38:12.414Z,0.95
2023-03-01T07:40:40.205Z,0.90
2023-03-01T07:43:07.908Z,1.28
2023-03-01T07:45:35.707Z,1.19
2023-03-01T07:48:03.461Z,1.69
2023-03-01T07:50:32.882Z,2.05
2023-03-01T07:53:00.470Z,2.25
2023-03-01T07:55:28.022Z,2.49
2023-03-01T07:57:55.963Z,2.71
2023-03-01T08:00:26.200Z,3.05
2023-03-01T08:02:53.938Z,3.44
2023-03-01T08:05:23.225Z,3.17
2023-03-01T08:07:52.150Z,3.71
2023-03-01T08:10:20.225Z,3.93
2023-03-01T08:12:47.827Z,4.02
2023-03-01T08:15:15.495Z,3.98
2023-03-01T08:17:43.099Z,4.01
2023-03-01T08:20:13.329Z,4.31
2023-03-01T08:22:41.017Z,4.58
2023-03-01T08:25:12.004Z,4.38
2023-03-01T08:27:39.594Z,4.68
2023-03-01T08:30:08.863Z,3.88
2023-03-01T08:32:40.108Z,4.05
2023-03-01T08:35:08.524Z,4.39
2023-03-01T08:37:36.102Z,4.56
2023-03-01T08:40:04.773Z,4.41
2023-03-01T08:42:34.972Z,4.50
2023-03-01T08:45:02.590Z,4.15
2023-03-01T08:47:31.460Z,4.45
2023-03-01T08:50:02.570Z,4.20
2023-03-01T08:53:06.900Z,4.25
2023-03-01T08:55:36.443Z,4.13
2023-03-01T08:58:12.501Z,4.04
2023-03-01T09:00:40.993Z,4.25
2023-03-01T09:03:08.650Z,3.95
2023-03-01T09:05:37.732Z,3.83
2023-03-01T09:08:05.763Z,3.53
2023-03-01T09:10:35.001Z,3.10
2023-03-01T09:13:02.667Z,3.24
2023-03-01T09:15:32.363Z,3.24
2023-03-01T09:18:03.706Z,3.15
2023-03-01T09:20:33.636Z,3.18
2023-03-01T09:23:01.671Z,3.32
2023-03-01T09:25:29.598Z,3.24
2023-03-01T09:27:57.236Z,3.18
2023-03-01T09:30:35.165Z,3.27
2023-03-01T09:33:15.384Z,3.19
2023-03-01T09:35:47.643Z,3.29
2023-03-01T09:38:17.909Z,3.45
2023-03-01T09:40:47.448Z,3.48
2023-03-01T09:43:22.801Z,3.62
2023-03-01T09:45:54.697Z,3.67
2023-03-01T09:48:28.624Z,3.66
2023-03-01T09:50:58.268Z,3.60
2023-03-01T09:53:36.159Z,3.75
2023-03-01T09:56:13.121Z,3.82
2023-03-01T09:58:53.768Z,3.83
2023-03-01T10:01:35.661Z,3.85
2023-03-01T10:04:22.484Z,4.01
2023-03-01T10:07:03.924Z,3.90
2023-03-01T10:09:35.226Z,4.04
2023-03-01T10:12:06.514Z,4.13
2023-03-01T10:14:47.447Z,4.35
2023-03-01T10:17:26.227Z,4.35
2023-03-01T10:19:55.605Z,4.43
2023-03-01T10:22:26.809Z,4.37
2023-03-01T10:24:56.375Z,4.24
2023-03-01T10:27:25.935Z,4.30
2023-03-01T10:30:16.636Z,4.53
2023-03-01T10:32:49.910Z,4.41
2023-03-01T10:35:22.358Z,4.44
2023-03-01T10:38:05.610Z,4.50
2023-03-01T10:40:33.784Z,4.51
2023-03-01T10:43:04.563Z,4.68
2023-03-01T10:45:36.609Z,4.65
2023-03-01T10:48:17.287Z,4.60
2023-03-01T10:50:55.643Z,4.76
2023-03-01T10:53:30.035Z,4.80
2023-03-01T10:56:03.416Z,4.87
2023-03-01T10:58:31.677Z,5.13
2023-03-01T11:01:02.403Z,5.27
2023-03-01T11:03:32.827Z,5.38
2023-03-01T11:06:06.526Z,5.46
2023-03-01T11:08:51.650Z,5.44
2023-03-01T11:11:26.159Z,5.61
2023-03-01T11:13:58.045Z,5.78
2023-03-01T11:16:35.911Z,5.85
2023-03-01T11:19:27.626Z,5.90
2023-03-01T11:22:06.880Z,5.71
2023-03-01T11:24:42.444Z,5.79
2023-03-01T11:27:19.778Z,5.99
2023-03-01T11:29:54.207Z,6.21
2023-03-01T11:32:25.803Z,6.18
2023-03-01T11:34:58.341Z,6.25
2023-03-01T11:38:05.189Z,6.29
2023-03-01T11:40:46.341Z,6.38
2023-03-01T11:43:24.276Z,6.33
2023-03-01T11:46:27.011Z,6.39
2023-03-01T11:49:09.243Z,6.40
2023-03-01T11:51:48.248Z,6.40
2023-03-01T11:54:29.434Z,6.60
2023-03-01T11:57:07.312Z,6.44
2023-03-01T12:00:08.650Z,6.64
2023-03-01T12:02:59.286Z,6.73
2023-03-01T12:06:09.194Z,6.74
2023-03-01T12:08:50.420Z,6.96
2023-03-01T12:11:34.063Z,7.10
2023-03-01T12:14:27.415Z,7.07
2023-03-01T12:17:25.514Z,6.92
2023-03-01T12:20:17.560Z,6.99
2023-03-01T12:23:19.944Z,7.04
2023-03-01T12:29:04.097Z,7.08
2023-03-01T12:31:54.477Z,7.13
2023-03-01T12:34:48.379Z,7.10
2023-03-01T12:37:43.073Z,7.00
2023-03-01T12:40:31.229Z,7.08
2023-03-01T12:43:13.991Z,7.19
2023-03-01T12:46:08.447Z,7.16
2023-03-01T12:48:46.944Z,7.13
2023-03-01T12:51:17.888Z,7.24
2023-03-01T12:53:49.040Z,7.37
2023-03-01T12:56:22.275Z,7.38
2023-03-01T12:58:59.960Z,7.39
2023-03-01T13:01:41.586Z,7.52
2023-03-01T13:04:35.379Z,7.66
2023-03-01T13:07:26.023Z,7.85
2023-03-01T13:10:03.223Z,7.74
2023-03-01T13:12:52.175Z,7.79
2023-03-01T13:15:35.087Z,7.75
2023-03-01T13:18:26.541Z,7.93
2023-03-01T13:21:00.496Z,7.94
2023-03-01T13:23:31.908Z,8.03
2023-03-01T13:26:13.370Z,7.97
2023-03-01T13:28:54.534Z,7.93
2023-03-01T13:31:56.140Z,8.17
2023-03-01T13:34:46.490Z,8.01
2023-03-01T13:37:30.461Z,7.91
2023-03-01T13:40:28.987Z,7.90
2023-03-01T13:43:05.752Z,7.79
2023-03-01T13:45:41.469Z,7.80
2023-03-01T13:48:17.210Z,7.91
2023-03-01T13:50:50.004Z,7.93
2023-03-01T13:53:20.761Z,8.02
2023-03-01T13:55:50.653Z,8.00
2023-03-01T13:58:24.553Z,7.85
2023-03-01T14:00:59.390Z,7.89
2023-03-01T14:03:27.812Z,7.90
2023-03-01T14:06:15.399Z,7.86
2023-03-01T14:08:45.659Z,7.95
2023-03-01T14:11:49.395Z,8.02
2023-03-01T14:14:40.068Z,8.01
2023-03-01T14:17:30.798Z,8.03
2023-03-01T14:20:00.522Z,8.15
2023-03-01T14:22:30.287Z,8.20
2023-03-01T14:25:02.850Z,8.25
2023-03-01T14:27:37.353Z,8.37
2023-03-01T14:30:16.627Z,8.37
2023-03-01T14:32:45.741Z,8.43
2023-03-01T14:35:24.311Z,8.33
2023-03-01T14:37:53.144Z,8.28
2023-03-01T14:40:27.690Z,8.15
2023-03-01T14:42:57.185Z,8.22
2023-03-01T14:45:29.562Z,8.03
2023-03-01T14:48:03.677Z,8.14
2023-03-01T14:50:37.267Z,8.15
2023-03-01T14:53:09.535Z,8.19
2023-03-01T14:55:42.170Z,8.20
2023-03-01T14:58:19.656Z,8.17
2023-03-01T15:00:54.292Z,8.11
2023-03-01T15:03:27.533Z,8.19
2023-03-01T15:05:56.984Z,8.30
2023-03-01T15:08:27.519Z,8.32
2023-03-01T15:11:00.649Z,8.08
2023-03-01T15:13:32.792Z,7.92
2023-03-01T15:16:13.181Z,7.84
2023-03-01T15:18:54.272Z,7.87
2023-03-01T15:21:32.317Z,7.86
2023-03-01T15:24:06.703Z,7.88
2023-03-01T15:26:43.644Z,7.93
2023-03-01T15:29:20.831Z,7.80
2023-03-01T15:34:41.721Z,7.75
2023-03-01T15:37:42.128Z,7.74
2023-03-01T15:40:44.561Z,7.78
2023-03-01T15:43:48.250Z,7.84
2023-03-01T15:46:29.177Z,7.94
2023-03-01T15:49:00.595Z,7.88
2023-03-01T15:51:41.458Z,7.79
2023-03-01T15:54:18.679Z,7.67
2023-03-01T15:56:52.775Z,7.62
2023-03-01T15:59:23.139Z,7.59
2023-03-01T16:01:51.150Z,7.57
2023-03-01T16:04:23.929Z,7.51
2023-03-01T16:07:00.758Z,7.34
2023-03-01T16:09:34.997Z,7.34
2023-03-01T16:12:04.641Z,7.33
2023-03-01T16:14:34.165Z,7.19
2023-03-01T16:17:02.094Z,7.13
2023-03-01T16:19:29.793Z,7.09
2023-03-01T16:21:58.147Z,7.01
2023-03-01T16:24:26.974Z,6.99
2023-03-01T16:26:54.922Z,6.95
2023-03-01T16:29:24.115Z,6.90
2023-03-01T16:31:51.957Z,6.90
2023-03-01T16:34:22.754Z,6.80
2023-03-01T16:36:50.571Z,6.74
2023-03-01T16:39:18.273Z,6.64
2023-03-01T16:41:45.976Z,6.61
2023-03-01T16:44:13.622Z,6.61
2023-03-01T16:46:44.645Z,6.59
2023-03-01T16:49:12.918Z,6.54
2023-03-01T16:51:40.610Z,6.49
2023-03-01T16:54:16.535Z,6.44
2023-03-01T16:56:45.225Z,6.37
2023-03-01T16:59:45.048Z,6.33
2023-03-01T17:02:17.102Z,6.32
2023-03-01T17:04:45.713Z,6.25
2023-03-01T17:07:17.435Z,6.22
2023-03-01T17:09:51.468Z,6.13
2023-03-01T17:12:20.592Z,6.06
2023-03-01T17:14:50.554Z,5.95
2023-03-01T17:17:21.066Z,5.88
2023-03-01T17:19:51.310Z,5.95
2023-03-01T17:22:18.949Z,5.80
2023-03-01T17:24:47.013Z,5.77
2023-03-01T17:27:15.959Z,5.71
2023-03-01T17:29:43.724Z,5.75
2023-03-01T17:32:11.804Z,5.81
2023-03-01T17:34:40.904Z,5.70
2023-03-01T17:37:08.657Z,5.67
2023-03-01T17:39:37.007Z,5.64
2023-03-01T17:42:07.153Z,5.51
2023-03-01T17:44:35.397Z,5.60
2023-03-01T17:47:06.022Z,5.56
2023-03-01T17:49:34.412Z,5.42
2023-03-01T17:52:04.763Z,5.44
2023-03-01T17:54:33.354Z,5.33
2023-03-01T17:57:01.631Z,5.34
2023-03-01T17:59:35.488Z,5.29
2023-03-01T18:02:06.808Z,5.29
2023-03-01T18:04:34.593Z,5.15
2023-03-01T18:07:02.338Z,5.25
2023-03-01T18:09:31.666Z,5.25
2023-03-01T18:11:59.670Z,5.18
2023-03-01T18:14:31.885Z,5.10
2023-03-01T18:16:59.606Z,5.05
2023-03-01T18:19:28.489Z,4.83
2023-03-01T18:21:56.800Z,4.78
2023-03-01T18:24:24.963Z,4.76
2023-03-01T18:26:54.083Z,4.71
2023-03-01T18:29:22.111Z,4.65
2023-03-01T18:31:49.954Z,4.58
2023-03-01T18:34:17.725Z,4.45
2023-03-01T18:37:00.551Z,4.48
2023-03-01T18:39:35.373Z,4.42
2023-03-01T18:42:24.766Z,4.31
2023-03-01T18:44:55.014Z,4.33
2023-03-01T18:47:24.554Z,4.43
2023-03-01T18:49:52.452Z,4.16
2023-03-01T18:52:20.213Z,4.11
2023-03-01T18:54:48.056Z,4.11
2023-03-01T18:57:17.353Z,4.12
2023-03-01T18:59:45.070Z,4.21
2023-03-01T19:02:15.859Z,4.24
2023-03-01T19:04:44.192Z,4.06
2023-03-01T19:07:13.542Z,3.91
2023-03-01T19:09:41.555Z,3.85
2023-03-01T19:12:09.747Z,3.96
2023-03-01T19:14:39.791Z,3.98
2023-03-01T19:17:07.646Z,4.04
2023-03-01T19:19:36.506Z,4.04
2023-03-01T19:24:50.983Z,3.89
2023-03-01T19:27:18.929Z,3.87
2023-03-01T19:29:48.091Z,3.80
2023-03-01T19:32:19.184Z,3.76
2023-03-01T19:34:47.021Z,3.86
2023-03-01T19:37:15.154Z,3.73
2023-03-01T19:39:50.796Z,3.73
2023-03-01T19:42:18.566Z,3.68
2023-03-01T19:44:46.241Z,3.69
2023-03-01T19:47:15.432Z,3.67
2023-03-01T19:49:46.257Z,3.70
2023-03-01T19:52:14.966Z,3.77
2023-03-01T19:54:42.834Z,3.71
2023-03-01T19:57:10.568Z,3.65
2023-03-01T19:59:38.608Z,3.59
2023-03-01T20:02:06.840Z,3.48
2023-03-01T20:04:36.049Z,3.49
2023-03-01T20:07:04.865Z,3.50
2023-03-01T20:09:32.708Z,3.28
2023-03-01T20:12:00.559Z,3.26
2023-03-01T20:14:28.234Z,3.14
2023-03-01T20:16:55.815Z,3.00
2023-03-01T20:19:24.467Z,3.21
2023-03-01T20:21:53.560Z,3.23
2023-03-01T20:24:21.433Z,3.12
2023-03-01T20:26:49.085Z,2.99
2023-03-01T20:29:16.972Z,2.92
2023-03-01T20:31:45.126Z,2.89
2023-03-01T20:34:12.815Z,2.85
2023-03-01T20:36:41.567Z,2.92
2023-03-01T20:39:13.598Z,2.90
2023-03-01T20:41:41.477Z,2.82
2023-03-01T20:44:12.373Z,2.78
2023-03-01T20:46:40.397Z,2.75
2023-03-01T20:49:08.277Z,2.71
2023-03-01T20:51:35.941Z,2.77
2023-03-01T20:54:04.954Z,2.69
2023-03-01T20:56:34.515Z,2.65
2023-03-01T20:59:05.287Z,2.52
2023-03-01T21:01:34.438Z,2.54
2023-03-01T21:04:02.520Z,2.71
2023-03-01T21:06:30.484Z,2.64
2023-03-01T21:08:58.828Z,2.43
2023-03-01T21:11:26.649Z,2.49
2023-03-01T21:13:57.042Z,2.59
2023-03-01T21:16:29.959Z,2.68
2023-03-01T21:19:00.307Z,2.77
2023-03-01T21:24:11.962Z,2.69
2023-03-01T21:26:39.825Z,2.69
2023-03-01T21:29:11.160Z,2.60
2023-03-01T21:31:49.171Z,2.59
2023-03-01T21:34:16.800Z,2.60
2023-03-01T21:36:44.505Z,2.51
2023-03-01T21:39:14.387Z,2.59
2023-03-01T21:41:42.128Z,2.70
2023-03-01T21:44:13.369Z,2.52
2023-03-01T21:46:42.219Z,2.59
2023-03-01T21:49:13.884Z,2.57
2023-03-01T21:51:42.404Z,2.60
2023-03-01T21:54:14.013Z,2.61
2023-03-01T21:56:42.042Z,2.54
2023-03-01T21:59:17.701Z,2.43
2023-03-01T22:01:48.716Z,2.45
2023-03-01T22:04:17.580Z,2.46
2023-03-01T22:06:47.342Z,2.49
2023-03-01T22:09:18.936Z,2.39
2023-03-01T22:11:50.505Z,2.45
2023-03-01T22:14:28.367Z,2.49
2023-03-01T22:16:57.320Z,2.44
2023-03-01T22:19:27.118Z,2.40
2023-03-01T22:21:54.823Z,2.48
2023-03-01T22:24:25.275Z,2.46
2023-03-01T22:26:54.593Z,2.33
2023-03-01T22:29:26.122Z,2.29
2023-03-01T22:31:54.798Z,2.25
2023-03-01T22:34:23.134Z,2.30
2023-03-01T22:36:51.270Z,2.17
2023-03-01T22:39:21.214Z,2.16
2023-03-01T22:41:50.089Z,2.02
2023-03-01T22:44:25.524Z,2.07
2023-03-01T22:46:53.289Z,1.93
2023-03-01T22:49:21.492Z,1.97
2023-03-01T22:51:49.439Z,2.02
2023-03-01T22:54:19.195Z,2.07
2023-03-01T22:56:47.327Z,1.97
2023-03-01T22:59:18.938Z,1.92
2023-03-01T23:01:48.565Z,1.93
2023-03-01T23:04:16.538Z,2.00
2023-03-01T23:06:51.622Z,1.91
2023-03-01T23:09:24.007Z,1.98
2023-03-01T23:11:53.243Z,1.90
2023-03-01T23:14:22.068Z,1.79
2023-03-01T23:16:52.050Z,1.80
2023-03-01T23:19:19.931Z,1.87
2023-03-01T23:21:50.324Z,1.74
2023-03-01T23:24:22.362Z,1.81
2023-03-01T23:26:53.543Z,1.86
2023-03-01T23:29:21.559Z,1.87
2023-03-01T23:31:49.258Z,1.86
2023-03-01T23:34:19.258Z,1.72
2023-03-01T23:36:46.940Z,1.76
2023-03-01T23:39:15.406Z,1.91
2023-03-01T23:41:43.444Z,1.88
2023-03-01T23:44:15.985Z,1.86
2023-03-01T23:46:44.291Z,1.74
2023-03-01T23:49:13.867Z,1.81
2023-03-01T23:51:44.491Z,1.76
2023-03-01T23:54:14.132Z,1.71
2023-03-01T23:56:44.049Z,1.76
2023-03-01T23:59:14.306Z,1.80
